Погода Приморско-Дюнына 2 недели

Бургас, Болгария

18 - 31 июля
  • 18июля
    Сегодня
    +23°
    +33°
    Ясно и безоблачно
    ВремяПогодаТемператураВлажностьДавлениеВетер, м/сВероятность осадков
    00:00Ясно и безоблачно+26°C84 %760 мм2.0 м/с2 %
    03:00Ясно и безоблачно+25°C84 %760 мм2.0 м/с2 %
    06:00Ясно и безоблачно+25°C76 %760 мм1.9 м/с2 %
    09:00Ясно и безоблачно+30°C53 %760 мм2.5 м/с2 %
    12:00Ясно и безоблачно+32°C56 %761 мм4.7 м/с2 %
    15:00Ясно и безоблачно+32°C63 %760 мм4.2 м/с3 %
    18:00Ясно и безоблачно+31°C67 %760 мм2.9 м/с4 %
    21:00Ясно и безоблачно+27°C80 %761 мм1.3 м/с2 %
  • 19июля
    Пятница
    +24°
    +33°
    Облачно с прояснениями
    ВремяПогодаТемператураВлажностьДавлениеВетер, м/сВероятность осадков
    00:00Ясно и безоблачно+26°C74 %761 мм0.8 м/с2 %
    03:00Ясно и безоблачно+25°C72 %760 мм2.0 м/с2 %
    06:00Ясно и безоблачно+24°C64 %760 мм3.0 м/с2 %
    09:00Ясно и безоблачно+29°C62 %760 мм5.1 м/с2 %
    12:00Практически безоблачно+32°C60 %760 мм5.2 м/с2 %
    15:00Облачно с прояснениями+32°C68 %760 мм3.9 м/с17 %
    18:00Облачно с прояснениями+29°C73 %759 мм1.9 м/с10 %
    21:00Ясно и безоблачно+27°C79 %759 мм1.7 м/с2 %
  • 20июля
    Суббота
    +23°
    +31°
    Ясно и безоблачно
    ВремяПогодаТемператураВлажностьДавлениеВетер, м/сВероятность осадков
    00:00Ясно и безоблачно+25°C82 %759 мм1.8 м/с2 %
    03:00Ясно и безоблачно+25°C81 %758 мм2.7 м/с2 %
    06:00Ясно и безоблачно+24°C82 %758 мм2.4 м/с2 %
    09:00Ясно и безоблачно+28°C62 %758 мм5.2 м/с2 %
    12:00Ясно и безоблачно+30°C51 %758 мм5.1 м/с2 %
    15:00Ясно и безоблачно+30°C54 %758 мм4.5 м/с4 %
    18:00Практически безоблачно+29°C68 %757 мм4.0 м/с2 %
    21:00Ясно и безоблачно+27°C83 %757 мм2.9 м/с2 %
  • 21июля
    Воскресенье
    +21°
    +30°
    Небольшая облачность
    ВремяПогодаТемператураВлажностьДавлениеВетер, м/сВероятность осадков
    00:00Ясно и безоблачно+25°C88 %757 мм1.7 м/с2 %
    03:00Ясно и безоблачно+25°C87 %757 мм1.3 м/с2 %
    06:00Ясно и безоблачно+24°C89 %756 мм0.3 м/с2 %
    09:00Ясно и безоблачно+27°C69 %757 мм1.7 м/с2 %
    12:00Ясно и безоблачно+30°C54 %757 мм3.2 м/с2 %
    15:00Небольшая облачность+30°C53 %756 мм3.6 м/с2 %
    18:00Ясно и безоблачно+29°C49 %755 мм3.0 м/с2 %
    21:00Ясно и безоблачно+27°C61 %756 мм2.3 м/с2 %
  • 22июля
    Понедельник
    +22°
    +31°
    Ясно и безоблачно
    ВремяПогодаТемператураВлажностьДавлениеВетер, м/сВероятность осадков
    00:00Ясно и безоблачно+25°C71 %756 мм1.6 м/с2 %
    03:00Ясно и безоблачно+23°C79 %755 мм1.1 м/с2 %
    06:00Ясно и безоблачно+22°C81 %755 мм1.2 м/с2 %
    09:00Ясно и безоблачно+28°C55 %756 мм0.4 м/с2 %
    12:00Ясно и безоблачно+31°C50 %755 мм3.3 м/с2 %
    15:00Ясно и безоблачно+31°C47 %754 мм5.2 м/с9 %
    18:00Небольшая облачность+30°C51 %755 мм2.5 м/с7 %
    21:00Практически безоблачно+27°C66 %755 мм2.3 м/с8 %
Мы используем cookies
Соглашаюсь